createdAt,value
2022-12-23T00:00:41.331Z,35.96
2022-12-23T00:03:09.614Z,35.46
2022-12-23T00:05:38.472Z,36.13
2022-12-23T00:08:08.476Z,35.99
2022-12-23T00:10:38.954Z,36.18
2022-12-23T00:13:24.159Z,36.18
2022-12-23T00:15:52.445Z,35.67
2022-12-23T00:18:20.531Z,35.64
2022-12-23T00:20:48.687Z,35.81
2022-12-23T00:23:18.157Z,36.40
2022-12-23T00:25:46.458Z,36.05
2022-12-23T00:28:16.275Z,36.25
2022-12-23T00:30:47.971Z,36.05
2022-12-23T00:33:16.181Z,36.40
2022-12-23T00:35:44.257Z,36.33
2022-12-23T00:38:12.445Z,36.40
2022-12-23T00:40:59.272Z,36.03
2022-12-23T00:43:27.441Z,35.93
2022-12-23T00:45:55.582Z,36.28
2022-12-23T00:48:37.597Z,35.81
2022-12-23T00:51:05.972Z,35.81
2022-12-23T00:53:34.034Z,36.40
2022-12-23T00:56:03.611Z,36.08
2022-12-23T00:58:32.155Z,36.16
2022-12-23T01:01:29.246Z,36.42
2022-12-23T01:04:14.951Z,35.86
2022-12-23T01:06:43.055Z,36.45
2022-12-23T01:09:11.132Z,36.62
2022-12-23T01:11:40.702Z,36.09
2022-12-23T01:14:09.379Z,36.14
2022-12-23T01:16:38.286Z,35.62
2022-12-23T01:19:06.392Z,35.88
2022-12-23T01:21:34.571Z,36.39
2022-12-23T01:24:02.728Z,36.33
2022-12-23T01:26:30.787Z,36.23
2022-12-23T01:29:00.270Z,36.46
2022-12-23T01:31:28.550Z,36.46
2022-12-23T01:33:57.285Z,36.30
2022-12-23T01:36:25.344Z,36.01
2022-12-23T01:38:53.371Z,36.18
2022-12-23T01:41:38.416Z,36.40
2022-12-23T01:44:39.528Z,36.14
2022-12-23T01:47:09.085Z,36.59
2022-12-23T01:49:37.216Z,36.09
2022-12-23T01:52:06.163Z,36.15
2022-12-23T01:54:34.331Z,36.12
2022-12-23T01:57:02.416Z,35.93
2022-12-23T01:59:48.102Z,35.99
2022-12-23T02:02:40.693Z,35.95
2022-12-23T02:05:09.577Z,36.50
2022-12-23T02:07:54.900Z,36.63
2022-12-23T02:10:23.544Z,36.23
2022-12-23T02:12:52.605Z,35.93
2022-12-23T02:15:49.576Z,36.63
2022-12-23T02:18:34.069Z,36.31
2022-12-23T02:21:28.810Z,35.83
2022-12-23T02:24:20.887Z,35.99
2022-12-23T02:26:59.699Z,36.07
2022-12-23T02:29:40.002Z,36.35
2022-12-23T02:32:12.136Z,36.42
2022-12-23T02:34:41.973Z,36.27
2022-12-23T02:37:12.183Z,36.35
2022-12-23T02:39:42.809Z,35.95
2022-12-23T02:42:12.566Z,35.98
2022-12-23T02:44:43.473Z,36.17
2022-12-23T02:47:14.331Z,36.57
2022-12-23T02:49:44.092Z,36.69
2022-12-23T02:52:15.429Z,36.09
2022-12-23T02:54:45.428Z,36.38
2022-12-23T02:57:13.528Z,36.37
2022-12-23T02:59:43.081Z,36.55
2022-12-23T03:02:12.694Z,36.20
2022-12-23T03:04:42.392Z,36.02
2022-12-23T03:07:16.759Z,35.93
2022-12-23T03:09:51.192Z,35.90
2022-12-23T03:12:22.756Z,36.22
2022-12-23T03:14:55.956Z,36.65
2022-12-23T03:17:36.627Z,36.40
2022-12-23T03:20:09.245Z,36.65
2022-12-23T03:22:39.516Z,36.13
2022-12-23T03:25:10.156Z,35.92
2022-12-23T03:27:40.331Z,35.95
2022-12-23T03:30:09.481Z,36.30
2022-12-23T03:32:40.871Z,36.37
2022-12-23T03:35:09.873Z,36.49
2022-12-23T03:37:38.712Z,36.61
2022-12-23T03:40:10.224Z,36.08
2022-12-23T03:42:39.493Z,35.93
2022-12-23T03:45:37.452Z,36.08
2022-12-23T03:48:01.096Z,36.24
2022-12-23T03:50:29.266Z,35.46
2022-12-23T03:52:58.374Z,35.76
2022-12-23T03:55:27.711Z,35.46
2022-12-23T03:57:59.749Z,35.66
2022-12-23T04:00:28.207Z,35.50
2022-12-23T04:03:00.748Z,36.01
2022-12-23T04:05:29.306Z,35.49
2022-12-23T04:07:59.881Z,35.38
2022-12-23T04:10:27.990Z,35.34
2022-12-23T04:12:56.105Z,35.63
2022-12-23T04:15:24.462Z,35.56
2022-12-23T04:17:52.843Z,35.49
2022-12-23T04:20:22.630Z,35.69
2022-12-23T04:22:50.740Z,35.90
2022-12-23T04:25:18.953Z,35.30
2022-12-23T04:27:47.000Z,36.04
2022-12-23T04:30:15.197Z,35.43
2022-12-23T04:32:43.496Z,35.53
2022-12-23T04:35:11.785Z,35.89
2022-12-23T04:37:41.299Z,35.60
2022-12-23T04:40:10.188Z,35.98
2022-12-23T04:42:38.584Z,35.73
2022-12-23T04:45:07.561Z,35.99
2022-12-23T04:47:35.711Z,36.16
2022-12-23T04:50:03.906Z,35.79
2022-12-23T04:52:32.070Z,36.27
2022-12-23T04:55:01.566Z,36.18
2022-12-23T04:57:29.646Z,36.10
2022-12-23T04:59:57.729Z,36.29
2022-12-23T05:02:25.951Z,36.39
2022-12-23T05:04:54.117Z,36.35
2022-12-23T05:07:22.242Z,35.80
2022-12-23T05:09:50.330Z,36.35
2022-12-23T05:12:19.811Z,35.86
2022-12-23T05:14:48.006Z,36.48
2022-12-23T05:17:16.110Z,35.83
2022-12-23T05:19:44.209Z,36.41
2022-12-23T05:22:12.278Z,36.48
2022-12-23T05:24:40.364Z,36.16
2022-12-23T05:27:08.466Z,35.88
2022-12-23T05:29:37.937Z,35.84
2022-12-23T05:32:06.382Z,36.22
2022-12-23T05:34:34.545Z,35.90
2022-12-23T05:37:02.704Z,35.79
2022-12-23T05:39:30.775Z,36.28
2022-12-23T05:41:58.933Z,36.04
2022-12-23T05:44:27.040Z,36.26
2022-12-23T05:46:56.534Z,36.21
2022-12-23T05:49:25.463Z,36.14
2022-12-23T05:51:53.665Z,35.77
2022-12-23T05:54:21.700Z,35.91
2022-12-23T05:56:49.832Z,35.68
2022-12-23T05:59:17.914Z,36.29
2022-12-23T06:01:46.104Z,36.21
2022-12-23T06:04:15.662Z,36.16
2022-12-23T06:06:43.817Z,35.71
2022-12-23T06:09:12.011Z,36.45
2022-12-23T06:11:40.167Z,36.36
2022-12-23T06:14:09.009Z,36.20
2022-12-23T06:16:37.193Z,36.10
2022-12-23T06:19:05.307Z,36.37
2022-12-23T06:21:34.816Z,36.49
2022-12-23T06:24:02.869Z,36.39
2022-12-23T06:26:30.998Z,36.39
2022-12-23T06:28:59.092Z,36.35
2022-12-23T06:31:27.310Z,36.23
2022-12-23T06:33:55.414Z,35.79
2022-12-23T06:36:23.541Z,35.70
2022-12-23T06:38:53.036Z,35.88
2022-12-23T06:41:21.264Z,36.33
2022-12-23T06:43:54.043Z,36.39
2022-12-23T06:46:22.504Z,35.71
2022-12-23T06:48:50.643Z,35.60
2022-12-23T06:51:18.787Z,35.52
2022-12-23T06:53:46.907Z,36.06
2022-12-23T06:56:16.450Z,36.34
2022-12-23T06:58:44.567Z,36.24
2022-12-23T07:01:12.782Z,36.34
2022-12-23T07:03:41.052Z,36.67
2022-12-23T07:06:09.482Z,36.69
2022-12-23T07:08:37.551Z,36.68
2022-12-23T07:11:06.148Z,36.48
2022-12-23T07:13:35.847Z,35.88
2022-12-23T07:16:06.612Z,35.80
2022-12-23T07:18:34.776Z,36.21
2022-12-23T07:21:03.053Z,35.87
2022-12-23T07:23:31.265Z,36.02
2022-12-23T07:25:59.319Z,35.63
2022-12-23T07:28:27.453Z,35.46
2022-12-23T07:30:56.883Z,36.11
2022-12-23T07:33:25.030Z,35.80
2022-12-23T07:35:53.216Z,35.41
2022-12-23T07:38:21.314Z,35.98
2022-12-23T07:40:50.016Z,35.45
2022-12-23T07:43:18.174Z,36.07
2022-12-23T07:45:46.260Z,35.29
2022-12-23T07:48:15.773Z,35.24
2022-12-23T07:50:43.901Z,35.39
2022-12-23T07:53:12.072Z,35.84
2022-12-23T07:55:41.064Z,35.85
2022-12-23T07:58:09.471Z,35.53
2022-12-23T08:00:37.623Z,35.15
2022-12-23T08:03:05.728Z,35.53
2022-12-23T08:05:35.329Z,35.21
2022-12-23T08:08:03.401Z,36.00
2022-12-23T08:10:31.493Z,35.49
2022-12-23T08:13:01.441Z,35.25
2022-12-23T08:15:29.583Z,35.65
2022-12-23T08:17:57.668Z,35.45
2022-12-23T08:20:25.844Z,35.73
2022-12-23T08:22:56.349Z,36.00
2022-12-23T08:25:24.539Z,36.11
2022-12-23T08:27:52.692Z,35.35
2022-12-23T08:30:21.200Z,36.07
2022-12-23T08:32:49.269Z,35.71
2022-12-23T08:35:17.513Z,35.46
2022-12-23T08:37:45.573Z,35.53
2022-12-23T08:40:15.164Z,35.30
2022-12-23T08:42:43.279Z,35.31
2022-12-23T08:45:12.024Z,35.96
2022-12-23T08:47:40.107Z,35.79
2022-12-23T08:50:09.064Z,35.66
2022-12-23T08:52:37.210Z,36.04
2022-12-23T08:55:05.571Z,35.64
2022-12-23T08:57:35.193Z,35.97
2022-12-23T09:00:03.679Z,35.94
2022-12-23T09:02:32.025Z,35.69
2022-12-23T09:05:00.246Z,35.26
2022-12-23T09:07:28.367Z,35.68
2022-12-23T09:09:56.465Z,35.28
2022-12-23T09:12:24.526Z,35.50
2022-12-23T09:14:54.124Z,35.63
2022-12-23T09:17:22.159Z,35.66
2022-12-23T09:19:52.989Z,35.46
2022-12-23T09:22:21.410Z,35.42
2022-12-23T09:24:49.497Z,35.72
2022-12-23T09:27:17.604Z,35.98
2022-12-23T09:29:45.667Z,36.06
2022-12-23T09:32:15.149Z,35.67
2022-12-23T09:34:43.198Z,36.12
2022-12-23T09:37:12.933Z,35.59
2022-12-23T09:39:41.044Z,35.27
2022-12-23T09:42:14.927Z,35.36
2022-12-23T09:44:49.935Z,35.75
2022-12-23T09:47:20.556Z,35.42
2022-12-23T09:49:51.006Z,35.97
2022-12-23T09:52:22.984Z,35.72
2022-12-23T09:54:52.951Z,35.89
2022-12-23T09:57:23.225Z,35.94
2022-12-23T10:00:05.001Z,35.39
2022-12-23T10:02:40.525Z,35.87
2022-12-23T10:05:16.280Z,35.77
2022-12-23T10:07:45.390Z,36.13
2022-12-23T10:10:15.973Z,36.09
2022-12-23T10:12:45.111Z,35.61
2022-12-23T10:15:21.110Z,35.68
2022-12-23T10:17:51.506Z,35.56
2022-12-23T10:20:22.323Z,36.12
2022-12-23T10:22:50.517Z,35.77
2022-12-23T10:25:21.452Z,35.45
2022-12-23T10:27:49.540Z,35.71
2022-12-23T10:33:10.254Z,35.51
2022-12-23T10:35:45.776Z,36.03
2022-12-23T10:38:23.329Z,35.49
2022-12-23T10:40:54.268Z,35.73
2022-12-23T10:43:24.461Z,36.05
2022-12-23T10:45:54.056Z,35.46
2022-12-23T10:48:31.279Z,35.60
2022-12-23T10:51:02.611Z,36.06
2022-12-23T10:53:37.024Z,35.93
2022-12-23T10:56:05.565Z,35.35
2022-12-23T10:58:33.639Z,35.49
2022-12-23T11:01:11.456Z,35.65
2022-12-23T11:03:47.296Z,35.67
2022-12-23T11:06:16.336Z,35.94
2022-12-23T11:08:44.424Z,35.52
2022-12-23T11:11:12.616Z,35.32
2022-12-23T11:13:41.590Z,35.28
2022-12-23T11:16:14.706Z,35.51
2022-12-23T11:18:58.816Z,36.13
2022-12-23T11:21:27.356Z,35.24
2022-12-23T11:24:17.956Z,35.52
2022-12-23T11:26:46.475Z,35.61
2022-12-23T11:29:16.714Z,35.93
2022-12-23T11:31:44.908Z,35.74
2022-12-23T11:34:18.520Z,35.76
2022-12-23T11:36:56.586Z,35.32
2022-12-23T11:39:28.735Z,36.01
2022-12-23T11:42:03.219Z,35.36
2022-12-23T11:44:32.004Z,35.88
2022-12-23T11:47:00.140Z,35.81
2022-12-23T11:49:31.520Z,35.65
2022-12-23T11:52:03.566Z,35.58
2022-12-23T11:54:33.460Z,35.48
2022-12-23T11:57:02.953Z,35.68
2022-12-23T11:59:33.952Z,36.00
2022-12-23T12:02:03.737Z,35.99
2022-12-23T12:04:35.806Z,35.59
2022-12-23T12:07:04.703Z,35.49
2022-12-23T12:09:32.927Z,36.14
2022-12-23T12:12:05.332Z,35.85
2022-12-23T12:14:35.003Z,35.57
2022-12-23T12:17:05.033Z,35.84
2022-12-23T12:19:35.810Z,35.43
2022-12-23T12:22:05.897Z,36.11
2022-12-23T12:24:36.622Z,36.08
2022-12-23T12:27:06.846Z,36.02
2022-12-23T12:29:38.751Z,35.91
2022-12-23T12:32:08.719Z,35.57
2022-12-23T12:34:43.720Z,35.75
2022-12-23T12:37:17.472Z,35.64
2022-12-23T12:39:50.014Z,36.11
2022-12-23T12:42:20.942Z,36.02
2022-12-23T12:44:58.712Z,35.67
2022-12-23T12:47:52.556Z,35.95
2022-12-23T12:50:20.777Z,36.37
2022-12-23T12:52:48.929Z,35.72
2022-12-23T12:55:20.823Z,35.94
2022-12-23T12:57:48.915Z,36.41
2022-12-23T13:00:18.132Z,36.10
2022-12-23T13:03:15.299Z,35.61
2022-12-23T13:05:54.139Z,36.00
2022-12-23T13:08:30.140Z,35.97
2022-12-23T13:10:59.897Z,36.15
2022-12-23T13:13:33.905Z,36.02
2022-12-23T13:16:04.392Z,35.92
2022-12-23T13:18:37.698Z,36.53
2022-12-23T13:21:09.448Z,36.35
2022-12-23T13:23:44.124Z,36.12
2022-12-23T13:26:17.143Z,36.78
2022-12-23T13:28:47.233Z,36.75
2022-12-23T13:31:16.900Z,36.67
2022-12-23T13:33:47.476Z,37.29
2022-12-23T13:36:32.987Z,37.49
2022-12-23T13:39:08.222Z,37.28
2022-12-23T13:41:39.336Z,37.86
2022-12-23T13:44:09.635Z,37.90
2022-12-23T13:46:43.776Z,38.19
2022-12-23T13:49:15.969Z,38.33
2022-12-23T13:51:50.107Z,37.72
2022-12-23T13:54:22.980Z,37.94
2022-12-23T13:56:54.119Z,38.44
2022-12-23T13:59:22.193Z,38.78
2022-12-23T14:01:52.670Z,38.29
2022-12-23T14:04:35.139Z,38.42
2022-12-23T14:07:06.596Z,38.93
2022-12-23T14:09:36.544Z,38.49
2022-12-23T14:12:13.723Z,39.07
2022-12-23T14:14:44.737Z,39.38
2022-12-23T14:17:16.372Z,38.67
2022-12-23T14:19:52.678Z,38.68
2022-12-23T14:22:34.490Z,38.65
2022-12-23T14:25:20.888Z,38.93
2022-12-23T14:27:53.063Z,39.01
2022-12-23T14:30:23.596Z,39.38
2022-12-23T14:32:53.112Z,39.23
2022-12-23T14:35:28.636Z,39.36
2022-12-23T14:38:24.437Z,38.87
2022-12-23T14:40:55.372Z,39.67
2022-12-23T14:43:28.739Z,39.18
2022-12-23T14:45:57.068Z,39.52
2022-12-23T14:49:38.242Z,39.45
2022-12-23T14:52:44.328Z,38.79
2022-12-23T14:55:42.723Z,39.28
2022-12-23T14:58:26.864Z,39.03
2022-12-23T15:01:00.972Z,38.80
2022-12-23T15:03:29.332Z,39.38
2022-12-23T15:05:57.500Z,38.69
2022-12-23T15:08:30.679Z,39.15
2022-12-23T15:11:00.205Z,38.68
2022-12-23T15:13:28.815Z,39.21
2022-12-23T15:16:01.345Z,38.58
2022-12-23T15:18:29.961Z,38.56
2022-12-23T15:21:02.210Z,38.85
2022-12-23T15:23:30.495Z,39.25
2022-12-23T15:26:00.422Z,38.40
2022-12-23T15:28:35.255Z,38.44
2022-12-23T15:31:03.386Z,38.97
2022-12-23T15:34:02.153Z,38.43
2022-12-23T15:36:27.909Z,38.35
2022-12-23T15:38:56.142Z,38.71
2022-12-23T15:41:25.689Z,38.91
2022-12-23T15:43:53.823Z,38.51
2022-12-23T15:46:29.020Z,38.80
2022-12-23T15:48:58.129Z,38.59
2022-12-23T15:51:58.193Z,38.79
2022-12-23T15:54:22.313Z,38.21
2022-12-23T15:56:53.752Z,38.40
2022-12-23T15:59:26.262Z,38.62
2022-12-23T16:01:54.896Z,38.31
2022-12-23T16:04:25.848Z,38.66
2022-12-23T16:06:54.303Z,38.96
2022-12-23T16:09:31.411Z,38.93
2022-12-23T16:12:01.847Z,39.58
2022-12-23T16:14:35.372Z,39.46
2022-12-23T16:17:13.731Z,39.66
2022-12-23T16:19:42.922Z,39.46
2022-12-23T16:22:28.060Z,39.78
2022-12-23T16:25:02.693Z,39.88
2022-12-23T16:27:37.337Z,40.00
2022-12-23T16:30:10.704Z,39.90
2022-12-23T16:32:48.419Z,40.66
2022-12-23T16:35:31.352Z,40.98
2022-12-23T16:38:11.793Z,41.25
2022-12-23T16:40:39.957Z,40.67
2022-12-23T16:43:09.595Z,40.64
2022-12-23T16:45:38.009Z,41.36
2022-12-23T16:48:10.585Z,41.33
2022-12-23T16:50:38.781Z,40.74
2022-12-23T16:53:06.871Z,41.36
2022-12-23T16:55:35.019Z,41.37
2022-12-23T16:58:03.036Z,41.11
2022-12-23T17:00:32.545Z,41.11
2022-12-23T17:03:00.687Z,41.01
2022-12-23T17:05:28.937Z,41.07
2022-12-23T17:07:56.995Z,40.73
2022-12-23T17:10:25.155Z,40.82
2022-12-23T17:12:53.241Z,41.19
2022-12-23T17:15:22.823Z,41.16
2022-12-23T17:17:53.433Z,41.16
2022-12-23T17:20:22.200Z,40.83
2022-12-23T17:22:51.133Z,40.69
2022-12-23T17:25:26.285Z,40.98
2022-12-23T17:27:55.696Z,41.35
2022-12-23T17:30:25.109Z,40.82
2022-12-23T17:32:57.089Z,40.82
2022-12-23T17:35:25.273Z,41.04
2022-12-23T17:37:53.535Z,40.59
2022-12-23T17:40:21.661Z,40.56
2022-12-23T17:42:49.860Z,41.03
2022-12-23T17:45:27.832Z,40.95
2022-12-23T17:47:57.427Z,40.90
2022-12-23T17:50:25.726Z,41.17
2022-12-23T17:52:53.864Z,41.21
2022-12-23T17:55:22.701Z,41.22
2022-12-23T17:57:51.945Z,41.05
2022-12-23T18:00:29.871Z,40.93
2022-12-23T18:03:03.215Z,40.90
2022-12-23T18:05:32.382Z,40.40
2022-12-23T18:08:01.492Z,40.95
2022-12-23T18:10:31.064Z,40.74
2022-12-23T18:13:00.360Z,40.73
2022-12-23T18:15:31.528Z,40.94
2022-12-23T18:17:59.676Z,40.37
2022-12-23T18:20:29.183Z,40.48
2022-12-23T18:23:01.770Z,40.80
2022-12-23T18:25:30.207Z,40.02
2022-12-23T18:27:58.398Z,40.03
2022-12-23T18:30:26.555Z,40.28
2022-12-23T18:32:54.653Z,39.99
2022-12-23T18:35:29.443Z,39.97
2022-12-23T18:37:57.816Z,40.00
2022-12-23T18:40:32.380Z,39.92
2022-12-23T18:43:01.084Z,40.61
2022-12-23T18:45:34.480Z,40.28
2022-12-23T18:48:02.955Z,39.87
2022-12-23T18:50:32.678Z,40.16
2022-12-23T18:53:01.010Z,40.10
2022-12-23T18:55:30.299Z,40.22
2022-12-23T18:57:58.804Z,40.16
2022-12-23T19:00:28.272Z,40.10
2022-12-23T19:02:57.127Z,39.97
2022-12-23T19:05:26.752Z,39.61
2022-12-23T19:07:57.371Z,39.48
2022-12-23T19:10:26.348Z,39.99
2022-12-23T19:12:54.554Z,39.46
2022-12-23T19:15:22.745Z,39.64
2022-12-23T19:17:51.414Z,39.85
2022-12-23T19:20:19.910Z,39.43
2022-12-23T19:22:48.088Z,39.78
2022-12-23T19:25:18.694Z,39.65
2022-12-23T19:27:47.096Z,39.39
2022-12-23T19:30:16.470Z,39.58
2022-12-23T19:32:44.674Z,39.23
2022-12-23T19:35:13.500Z,39.52
2022-12-23T19:37:41.650Z,39.37
2022-12-23T19:40:10.808Z,39.88
2022-12-23T19:42:40.621Z,39.83
2022-12-23T19:45:10.046Z,39.51
2022-12-23T19:47:38.209Z,39.92
2022-12-23T19:50:07.369Z,40.22
2022-12-23T19:52:35.630Z,40.37
2022-12-23T19:55:03.711Z,39.55
2022-12-23T19:57:32.034Z,39.62
2022-12-23T20:00:02.718Z,40.30
2022-12-23T20:02:40.133Z,39.68
2022-12-23T20:05:09.661Z,40.26
2022-12-23T20:07:37.841Z,39.59
2022-12-23T20:10:06.908Z,39.97
2022-12-23T20:12:35.023Z,40.14
2022-12-23T20:15:04.858Z,40.21
2022-12-23T20:17:33.003Z,39.71
2022-12-23T20:20:01.232Z,39.75
2022-12-23T20:22:29.362Z,40.47
2022-12-23T20:24:58.652Z,40.38
2022-12-23T20:27:28.282Z,39.93
2022-12-23T20:29:56.581Z,40.28
2022-12-23T20:32:26.023Z,39.87
2022-12-23T20:34:54.167Z,39.87
2022-12-23T20:37:22.233Z,40.24
2022-12-23T20:39:50.640Z,40.44
2022-12-23T20:42:18.804Z,40.18
2022-12-23T20:44:47.081Z,40.72
2022-12-23T20:47:15.603Z,40.11
2022-12-23T20:49:45.049Z,40.55
2022-12-23T20:52:13.212Z,40.03
2022-12-23T20:54:41.321Z,40.25
2022-12-23T20:57:09.471Z,40.08
2022-12-23T20:59:37.684Z,40.07
2022-12-23T21:02:06.307Z,40.53
2022-12-23T21:04:34.519Z,39.96
2022-12-23T21:07:04.001Z,39.78
2022-12-23T21:09:32.212Z,40.55
2022-12-23T21:12:00.423Z,39.87
2022-12-23T21:14:28.744Z,39.93
2022-12-23T21:16:56.854Z,39.61
2022-12-23T21:19:25.923Z,39.70
2022-12-23T21:21:54.148Z,40.17
2022-12-23T21:24:24.057Z,40.33
2022-12-23T21:26:56.500Z,39.81
2022-12-23T21:29:25.418Z,40.02
2022-12-23T21:31:53.737Z,39.64
2022-12-23T21:34:21.977Z,39.93
2022-12-23T21:36:50.112Z,39.94
2022-12-23T21:39:18.315Z,39.63
2022-12-23T21:41:51.015Z,40.10
2022-12-23T21:44:19.136Z,40.25
2022-12-23T21:46:47.307Z,39.68
2022-12-23T21:49:15.493Z,40.24
2022-12-23T21:51:43.553Z,39.86
2022-12-23T21:54:12.015Z,39.17
2022-12-23T21:56:40.165Z,39.14
2022-12-23T21:59:11.739Z,39.15
2022-12-23T22:01:39.927Z,39.38
2022-12-23T22:04:08.054Z,39.54
2022-12-23T22:06:37.317Z,39.57
2022-12-23T22:09:05.576Z,39.25
2022-12-23T22:11:35.117Z,39.28
2022-12-23T22:14:03.766Z,39.36
2022-12-23T22:16:33.307Z,39.41
2022-12-23T22:19:01.921Z,39.39
2022-12-23T22:21:30.985Z,38.86
2022-12-23T22:23:59.192Z,39.54
2022-12-23T22:26:28.082Z,39.59
2022-12-23T22:28:56.365Z,39.12
2022-12-23T22:31:28.104Z,38.88
2022-12-23T22:33:57.677Z,38.76
2022-12-23T22:36:25.836Z,38.90
2022-12-23T22:38:54.451Z,38.82
2022-12-23T22:41:22.627Z,38.87
2022-12-23T22:43:50.762Z,39.44
2022-12-23T22:46:19.089Z,39.34
2022-12-23T22:48:47.663Z,39.30
2022-12-23T22:51:19.152Z,38.99
2022-12-23T22:53:47.432Z,39.01
2022-12-23T22:56:16.417Z,38.86
2022-12-23T22:58:44.532Z,39.38
2022-12-23T23:01:20.095Z,38.64
2022-12-23T23:03:50.829Z,39.13
2022-12-23T23:06:20.393Z,39.21
2022-12-23T23:08:48.569Z,38.68
2022-12-23T23:11:17.200Z,38.92
2022-12-23T23:13:45.331Z,38.40
2022-12-23T23:16:13.442Z,38.59
2022-12-23T23:18:41.670Z,38.84
2022-12-23T23:21:10.555Z,38.40
2022-12-23T23:23:40.046Z,38.21
2022-12-23T23:26:08.755Z,39.08
2022-12-23T23:28:36.844Z,38.28
2022-12-23T23:31:39.770Z,38.65
2022-12-23T23:33:53.144Z,38.39
2022-12-23T23:36:21.275Z,39.14
2022-12-23T23:38:50.753Z,38.77
2022-12-23T23:41:22.805Z,38.99
2022-12-23T23:43:52.150Z,38.89
2022-12-23T23:46:20.332Z,38.93
2022-12-23T23:48:48.589Z,38.51
2022-12-23T23:51:16.667Z,38.15
2022-12-23T23:53:44.881Z,38.32
2022-12-23T23:56:14.403Z,38.32
2022-12-23T23:58:42.568Z,38.92
